Terminal Aerodrome Forecast
Issued by NWS

Home | Current Version | Previous Version | Text Only | Print | Product List | Glossary On
Versions: 1 2 3 4 5 6 7 8 9 10 11 12 13 14 15 16 17 18 19
000
FTUS43 KLSX 232339
TAFUIN
TAF
KUIN 232339Z 2400/2424 31007KT P6SM VCSH BKN040
     FM240200 31006KT P6SM BKN040
     FM241200 32007KT P6SM BKN020
     FM241800 33009KT P6SM VCSH BKN030=

USA.gov is the U.S. government's official web portal to all federal, state and local government web resources and services.